sensor_id;sensor_type;location;lat;lon;timestamp;pressure;altitude;pressure_sealevel;temperature;humidity
29941;BME280;16801;53.562;10.038;2022-12-10T00:01:47;100926.09;;;-0.11;93.11
29941;BME280;16801;53.562;10.038;2022-12-10T00:05:09;100930.78;;;0.03;93.18
29941;BME280;16801;53.562;10.038;2022-12-10T00:08:30;100933.03;;;0.30;92.35
29941;BME280;16801;53.562;10.038;2022-12-10T00:11:52;100929.41;;;0.33;92.18
29941;BME280;16801;53.562;10.038;2022-12-10T00:15:13;100930.31;;;0.32;91.32
29941;BME280;16801;53.562;10.038;2022-12-10T00:18:36;100939.72;;;0.39;91.59
29941;BME280;16801;53.562;10.038;2022-12-10T00:21:57;100940.13;;;0.30;91.16
29941;BME280;16801;53.562;10.038;2022-12-10T00:25:18;100938.63;;;0.24;91.11
29941;BME280;16801;53.562;10.038;2022-12-10T00:28:41;100940.41;;;0.24;91.52
29941;BME280;16801;53.562;10.038;2022-12-10T00:32:03;100942.78;;;0.30;91.10
29941;BME280;16801;53.562;10.038;2022-12-10T00:35:25;100946.09;;;0.35;91.26
29941;BME280;16801;53.562;10.038;2022-12-10T00:38:47;100933.38;;;0.04;91.39
29941;BME280;16801;53.562;10.038;2022-12-10T00:42:08;100934.16;;;0.06;92.09
29941;BME280;16801;53.562;10.038;2022-12-10T00:45:30;100940.75;;;0.16;91.52
29941;BME280;16801;53.562;10.038;2022-12-10T00:48:51;100947.84;;;0.16;91.26
29941;BME280;16801;53.562;10.038;2022-12-10T00:52:12;100955.00;;;0.14;91.60
29941;BME280;16801;53.562;10.038;2022-12-10T00:55:33;100949.53;;;0.37;90.85
29941;BME280;16801;53.562;10.038;2022-12-10T00:58:54;100954.41;;;0.46;90.88
29941;BME280;16801;53.562;10.038;2022-12-10T01:02:17;100954.84;;;0.55;90.15
29941;BME280;16801;53.562;10.038;2022-12-10T01:05:38;100954.47;;;0.44;89.53
29941;BME280;16801;53.562;10.038;2022-12-10T01:09:00;100961.00;;;0.56;89.66
29941;BME280;16801;53.562;10.038;2022-12-10T01:12:21;100958.56;;;0.33;89.43
29941;BME280;16801;53.562;10.038;2022-12-10T01:15:42;100965.28;;;0.40;89.60
29941;BME280;16801;53.562;10.038;2022-12-10T01:19:05;100964.78;;;0.32;89.89
29941;BME280;16801;53.562;10.038;2022-12-10T01:22:27;100948.81;;;0.52;89.72
29941;BME280;16801;53.562;10.038;2022-12-10T01:25:48;100962.38;;;0.46;89.00
29941;BME280;16801;53.562;10.038;2022-12-10T01:29:10;100962.13;;;0.32;89.32
29941;BME280;16801;53.562;10.038;2022-12-10T01:32:33;100962.91;;;0.34;90.23
29941;BME280;16801;53.562;10.038;2022-12-10T01:35:55;100965.16;;;0.43;89.92
29941;BME280;16801;53.562;10.038;2022-12-10T01:39:18;100971.03;;;0.49;89.67
29941;BME280;16801;53.562;10.038;2022-12-10T01:42:39;100965.66;;;0.51;89.52
29941;BME280;16801;53.562;10.038;2022-12-10T01:46:00;100971.09;;;0.09;90.34
29941;BME280;16801;53.562;10.038;2022-12-10T01:49:23;100972.72;;;-0.07;90.68
29941;BME280;16801;53.562;10.038;2022-12-10T01:52:45;100973.63;;;0.12;90.77
29941;BME280;16801;53.562;10.038;2022-12-10T01:56:09;100978.19;;;0.47;89.95
29941;BME280;16801;53.562;10.038;2022-12-10T01:59:30;100973.19;;;0.41;89.13
29941;BME280;16801;53.562;10.038;2022-12-10T02:02:55;100973.91;;;-0.14;90.09
29941;BME280;16801;53.562;10.038;2022-12-10T02:06:29;100969.78;;;-0.01;90.42
29941;BME280;16801;53.562;10.038;2022-12-10T02:09:58;100979.94;;;0.10;89.71
29941;BME280;16801;53.562;10.038;2022-12-10T02:13:27;100982.56;;;0.10;89.49
29941;BME280;16801;53.562;10.038;2022-12-10T02:16:55;100990.50;;;0.30;89.80
29941;BME280;16801;53.562;10.038;2022-12-10T02:20:19;100979.88;;;0.30;88.77
29941;BME280;16801;53.562;10.038;2022-12-10T02:23:45;100984.38;;;0.48;88.70
29941;BME280;16801;53.562;10.038;2022-12-10T02:27:14;100981.56;;;0.51;88.17
29941;BME280;16801;53.562;10.038;2022-12-10T02:30:38;100973.03;;;0.63;87.48
29941;BME280;16801;53.562;10.038;2022-12-10T02:34:03;100984.88;;;0.56;87.13
29941;BME280;16801;53.562;10.038;2022-12-10T02:37:30;100984.81;;;0.57;87.69
29941;BME280;16801;53.562;10.038;2022-12-10T02:40:55;100984.88;;;0.56;87.72
29941;BME280;16801;53.562;10.038;2022-12-10T02:44:19;100985.88;;;0.72;87.65
29941;BME280;16801;53.562;10.038;2022-12-10T02:47:43;100983.09;;;0.75;86.88
29941;BME280;16801;53.562;10.038;2022-12-10T02:51:08;100980.44;;;0.75;86.45
29941;BME280;16801;53.562;10.038;2022-12-10T02:54:37;100981.84;;;0.82;86.80
29941;BME280;16801;53.562;10.038;2022-12-10T02:58:06;100986.53;;;0.77;86.46
29941;BME280;16801;53.562;10.038;2022-12-10T03:01:35;100993.97;;;0.69;86.17
29941;BME280;16801;53.562;10.038;2022-12-10T03:05:03;100989.91;;;0.80;86.70
29941;BME280;16801;53.562;10.038;2022-12-10T03:08:30;100988.31;;;0.76;86.05
29941;BME280;16801;53.562;10.038;2022-12-10T03:11:58;100991.31;;;0.69;86.63
29941;BME280;16801;53.562;10.038;2022-12-10T03:15:22;100992.97;;;0.53;86.77
29941;BME280;16801;53.562;10.038;2022-12-10T03:18:46;100987.47;;;0.76;86.51
29941;BME280;16801;53.562;10.038;2022-12-10T03:22:12;101002.38;;;0.60;86.89
29941;BME280;16801;53.562;10.038;2022-12-10T03:25:33;100996.31;;;0.56;86.10
29941;BME280;16801;53.562;10.038;2022-12-10T03:29:00;100989.44;;;0.52;86.66
29941;BME280;16801;53.562;10.038;2022-12-10T03:32:25;100990.28;;;0.73;86.53
29941;BME280;16801;53.562;10.038;2022-12-10T03:35:47;100996.00;;;0.64;85.94
29941;BME280;16801;53.562;10.038;2022-12-10T03:39:10;101001.00;;;0.70;85.27
29941;BME280;16801;53.562;10.038;2022-12-10T03:42:32;100993.41;;;0.81;85.31
29941;BME280;16801;53.562;10.038;2022-12-10T03:45:55;100989.59;;;0.87;84.93
29941;BME280;16801;53.562;10.038;2022-12-10T03:49:16;100996.84;;;0.83;84.56
29941;BME280;16801;53.562;10.038;2022-12-10T03:52:37;101007.31;;;0.86;85.30
29941;BME280;16801;53.562;10.038;2022-12-10T03:55:59;101001.38;;;0.81;84.72
29941;BME280;16801;53.562;10.038;2022-12-10T03:59:20;100998.28;;;0.90;84.22
29941;BME280;16801;53.562;10.038;2022-12-10T04:02:41;100988.69;;;0.88;84.25
29941;BME280;16801;53.562;10.038;2022-12-10T04:06:03;100986.66;;;0.93;83.80
29941;BME280;16801;53.562;10.038;2022-12-10T04:09:24;100986.53;;;0.96;84.31
29941;BME280;16801;53.562;10.038;2022-12-10T04:12:46;100990.88;;;0.97;83.75
29941;BME280;16801;53.562;10.038;2022-12-10T04:16:28;100983.13;;;1.11;82.69
29941;BME280;16801;53.562;10.038;2022-12-10T04:19:48;100984.84;;;1.12;82.72
29941;BME280;16801;53.562;10.038;2022-12-10T04:23:09;100987.63;;;1.09;82.56
29941;BME280;16801;53.562;10.038;2022-12-10T04:26:47;100986.72;;;1.10;83.29
29941;BME280;16801;53.562;10.038;2022-12-10T04:30:16;100989.19;;;0.96;82.98
29941;BME280;16801;53.562;10.038;2022-12-10T04:33:37;100985.28;;;1.03;82.99
29941;BME280;16801;53.562;10.038;2022-12-10T04:36:58;100984.06;;;1.10;82.72
29941;BME280;16801;53.562;10.038;2022-12-10T04:40:19;100985.38;;;1.01;82.16
29941;BME280;16801;53.562;10.038;2022-12-10T04:43:40;100986.59;;;0.57;83.93
29941;BME280;16801;53.562;10.038;2022-12-10T04:47:04;100989.22;;;0.57;83.90
29941;BME280;16801;53.562;10.038;2022-12-10T04:50:25;100989.69;;;0.66;83.71
29941;BME280;16801;53.562;10.038;2022-12-10T04:53:46;100987.38;;;0.77;83.68
29941;BME280;16801;53.562;10.038;2022-12-10T04:57:07;100991.84;;;0.58;83.51
29941;BME280;16801;53.562;10.038;2022-12-10T05:00:28;100998.78;;;0.61;84.10
29941;BME280;16801;53.562;10.038;2022-12-10T05:03:51;100990.91;;;0.78;83.62
29941;BME280;16801;53.562;10.038;2022-12-10T05:07:12;100989.53;;;0.88;82.86
29941;BME280;16801;53.562;10.038;2022-12-10T05:10:34;100990.38;;;0.89;83.78
29941;BME280;16801;53.562;10.038;2022-12-10T05:13:55;100990.53;;;0.86;82.94
29941;BME280;16801;53.562;10.038;2022-12-10T05:17:16;100999.84;;;0.75;83.06
29941;BME280;16801;53.562;10.038;2022-12-10T05:20:38;100989.53;;;0.88;82.45
29941;BME280;16801;53.562;10.038;2022-12-10T05:23:59;100998.72;;;0.81;82.32
29941;BME280;16801;53.562;10.038;2022-12-10T05:27:19;101002.56;;;0.55;83.38
29941;BME280;16801;53.562;10.038;2022-12-10T05:30:40;101001.88;;;0.52;83.10
29941;BME280;16801;53.562;10.038;2022-12-10T05:34:00;100991.47;;;0.66;84.06
29941;BME280;16801;53.562;10.038;2022-12-10T05:37:23;100994.50;;;0.77;83.03
29941;BME280;16801;53.562;10.038;2022-12-10T05:40:43;101003.94;;;0.82;83.17
29941;BME280;16801;53.562;10.038;2022-12-10T05:44:05;100996.91;;;0.81;83.00
29941;BME280;16801;53.562;10.038;2022-12-10T05:47:27;101000.06;;;0.71;82.96
29941;BME280;16801;53.562;10.038;2022-12-10T05:50:48;100997.41;;;0.71;83.01
29941;BME280;16801;53.562;10.038;2022-12-10T05:54:10;101003.44;;;0.74;82.80
29941;BME280;16801;53.562;10.038;2022-12-10T05:57:31;101008.28;;;0.46;83.75
29941;BME280;16801;53.562;10.038;2022-12-10T06:00:52;101003.44;;;0.56;83.67
29941;BME280;16801;53.562;10.038;2022-12-10T06:04:13;101005.88;;;0.60;83.46
29941;BME280;16801;53.562;10.038;2022-12-10T06:07:34;101010.16;;;0.63;83.10
29941;BME280;16801;53.562;10.038;2022-12-10T06:10:56;101015.84;;;0.74;83.04
29941;BME280;16801;53.562;10.038;2022-12-10T06:14:17;101013.63;;;0.83;83.67
29941;BME280;16801;53.562;10.038;2022-12-10T06:17:38;101015.47;;;0.81;83.05
29941;BME280;16801;53.562;10.038;2022-12-10T06:21:02;101017.63;;;0.92;83.01
29941;BME280;16801;53.562;10.038;2022-12-10T06:24:23;101030.19;;;0.89;82.64
29941;BME280;16801;53.562;10.038;2022-12-10T06:27:46;101031.56;;;0.78;82.66
29941;BME280;16801;53.562;10.038;2022-12-10T06:31:06;101029.03;;;0.75;83.07
29941;BME280;16801;53.562;10.038;2022-12-10T06:34:28;101031.88;;;0.71;82.49
29941;BME280;16801;53.562;10.038;2022-12-10T06:37:49;101034.22;;;0.78;82.36
29941;BME280;16801;53.562;10.038;2022-12-10T06:41:12;101028.97;;;0.96;82.01
29941;BME280;16801;53.562;10.038;2022-12-10T06:44:34;101024.31;;;0.82;82.09
29941;BME280;16801;53.562;10.038;2022-12-10T06:47:55;101029.47;;;0.85;82.52
29941;BME280;16801;53.562;10.038;2022-12-10T06:51:17;101027.13;;;0.79;82.43
29941;BME280;16801;53.562;10.038;2022-12-10T06:54:38;101029.47;;;0.85;82.93
29941;BME280;16801;53.562;10.038;2022-12-10T06:57:59;101034.00;;;0.64;82.35
29941;BME280;16801;53.562;10.038;2022-12-10T07:01:22;101035.69;;;0.65;82.65
29941;BME280;16801;53.562;10.038;2022-12-10T07:04:45;101049.94;;;0.63;81.83
29941;BME280;16801;53.562;10.038;2022-12-10T07:08:06;101049.47;;;0.73;82.28
29941;BME280;16801;53.562;10.038;2022-12-10T07:11:27;101053.94;;;0.73;82.79
29941;BME280;16801;53.562;10.038;2022-12-10T07:14:50;101056.28;;;0.60;82.63
29941;BME280;16801;53.562;10.038;2022-12-10T07:18:12;101068.88;;;0.55;82.47
29941;BME280;16801;53.562;10.038;2022-12-10T07:21:34;101072.13;;;0.62;82.66
29941;BME280;16801;53.562;10.038;2022-12-10T07:24:55;101067.97;;;0.75;81.77
29941;BME280;16801;53.562;10.038;2022-12-10T07:28:16;101075.19;;;0.71;82.12
29941;BME280;16801;53.562;10.038;2022-12-10T07:31:37;101074.06;;;0.58;81.61
29941;BME280;16801;53.562;10.038;2022-12-10T07:35:00;101077.41;;;0.42;82.64
29941;BME280;16801;53.562;10.038;2022-12-10T07:38:21;101084.97;;;0.51;82.12
29941;BME280;16801;53.562;10.038;2022-12-10T07:41:42;101081.53;;;0.49;82.77
29941;BME280;16801;53.562;10.038;2022-12-10T07:45:03;101088.16;;;0.59;83.26
29941;BME280;16801;53.562;10.038;2022-12-10T07:48:24;101097.09;;;0.56;82.51
29941;BME280;16801;53.562;10.038;2022-12-10T07:51:47;101094.13;;;0.64;83.20
29941;BME280;16801;53.562;10.038;2022-12-10T07:55:08;101096.38;;;0.53;82.90
29941;BME280;16801;53.562;10.038;2022-12-10T07:58:29;101092.84;;;0.52;83.50
29941;BME280;16801;53.562;10.038;2022-12-10T08:01:51;101101.56;;;0.56;82.77
29941;BME280;16801;53.562;10.038;2022-12-10T08:05:12;101101.28;;;0.62;82.07
29941;BME280;16801;53.562;10.038;2022-12-10T08:08:36;101104.81;;;0.62;82.56
29941;BME280;16801;53.562;10.038;2022-12-10T08:11:58;101103.41;;;0.54;82.00
29941;BME280;16801;53.562;10.038;2022-12-10T08:15:19;101112.59;;;0.65;81.85
29941;BME280;16801;53.562;10.038;2022-12-10T08:18:40;101104.59;;;0.47;82.25
29941;BME280;16801;53.562;10.038;2022-12-10T08:22:02;101109.22;;;0.42;81.85
29941;BME280;16801;53.562;10.038;2022-12-10T08:25:24;101108.56;;;0.57;82.88
29941;BME280;16801;53.562;10.038;2022-12-10T08:28:45;101114.06;;;0.52;82.05
29941;BME280;16801;53.562;10.038;2022-12-10T08:32:08;101114.03;;;0.54;82.19
29941;BME280;16801;53.562;10.038;2022-12-10T08:35:29;101120.97;;;0.56;81.79
29941;BME280;16801;53.562;10.038;2022-12-10T08:38:50;101122.50;;;0.62;81.51
29941;BME280;16801;53.562;10.038;2022-12-10T08:42:12;101117.88;;;0.86;84.39
29941;BME280;16801;53.562;10.038;2022-12-10T08:45:33;101127.41;;;0.51;82.78
29941;BME280;16801;53.562;10.038;2022-12-10T08:48:55;101131.84;;;0.50;82.39
29941;BME280;16801;53.562;10.038;2022-12-10T08:52:16;101127.00;;;0.60;83.04
29941;BME280;16801;53.562;10.038;2022-12-10T08:55:38;101140.41;;;0.57;82.55
29941;BME280;16801;53.562;10.038;2022-12-10T08:59:00;101139.34;;;0.61;82.50
29941;BME280;16801;53.562;10.038;2022-12-10T09:02:21;101134.91;;;0.61;82.38
29941;BME280;16801;53.562;10.038;2022-12-10T09:05:42;101145.91;;;0.52;81.87
29941;BME280;16801;53.562;10.038;2022-12-10T09:09:04;101143.53;;;0.66;81.28
29941;BME280;16801;53.562;10.038;2022-12-10T09:12:25;101144.63;;;0.61;81.30
29941;BME280;16801;53.562;10.038;2022-12-10T09:15:51;101147.81;;;0.69;81.02
29941;BME280;16801;53.562;10.038;2022-12-10T09:19:12;101160.22;;;0.68;83.90
29941;BME280;16801;53.562;10.038;2022-12-10T09:22:33;101157.34;;;0.93;83.65
29941;BME280;16801;53.562;10.038;2022-12-10T09:25:56;101164.91;;;0.82;81.25
29941;BME280;16801;53.562;10.038;2022-12-10T09:29:17;101165.19;;;0.76;81.46
29941;BME280;16801;53.562;10.038;2022-12-10T09:32:39;101163.81;;;0.47;81.07
29941;BME280;16801;53.562;10.038;2022-12-10T09:36:02;101171.22;;;0.39;81.36
29941;BME280;16801;53.562;10.038;2022-12-10T09:39:23;101171.50;;;0.53;81.46
29941;BME280;16801;53.562;10.038;2022-12-10T09:42:51;101172.63;;;0.68;80.60
29941;BME280;16801;53.562;10.038;2022-12-10T09:46:23;101170.25;;;0.62;80.05
29941;BME280;16801;53.562;10.038;2022-12-10T09:49:56;101171.16;;;0.61;80.06
29941;BME280;16801;53.562;10.038;2022-12-10T09:53:21;101177.22;;;0.64;79.96
29941;BME280;16801;53.562;10.038;2022-12-10T09:56:42;101173.00;;;0.99;83.84
29941;BME280;16801;53.562;10.038;2022-12-10T10:00:09;101161.69;;;1.14;79.18
29941;BME280;16801;53.562;10.038;2022-12-10T10:03:38;101161.16;;;0.88;78.84
29941;BME280;16801;53.562;10.038;2022-12-10T10:07:01;101156.53;;;0.72;78.31
29941;BME280;16801;53.562;10.038;2022-12-10T10:10:26;101166.13;;;0.75;78.58
29941;BME280;16801;53.562;10.038;2022-12-10T10:13:52;101159.00;;;0.75;79.68
29941;BME280;16801;53.562;10.038;2022-12-10T10:17:16;101156.34;;;0.96;79.04
29941;BME280;16801;53.562;10.038;2022-12-10T10:20:39;101147.03;;;1.06;78.25
29941;BME280;16801;53.562;10.038;2022-12-10T10:24:03;101149.38;;;0.93;77.94
29941;BME280;16801;53.562;10.038;2022-12-10T10:27:28;101161.16;;;0.67;78.44
29941;BME280;16801;53.562;10.038;2022-12-10T10:30:52;101159.16;;;0.72;78.24
29941;BME280;16801;53.562;10.038;2022-12-10T10:34:17;101155.13;;;0.64;77.99
29941;BME280;16801;53.562;10.038;2022-12-10T10:37:40;101151.75;;;0.60;78.02
29941;BME280;16801;53.562;10.038;2022-12-10T10:41:04;101161.34;;;0.63;79.13
29941;BME280;16801;53.562;10.038;2022-12-10T10:44:27;101170.50;;;0.56;78.14
29941;BME280;16801;53.562;10.038;2022-12-10T10:48:03;101163.81;;;0.67;78.27
29941;BME280;16801;53.562;10.038;2022-12-10T10:51:24;101168.03;;;0.71;78.79
29941;BME280;16801;53.562;10.038;2022-12-10T10:54:46;101166.34;;;0.70;77.96
29941;BME280;16801;53.562;10.038;2022-12-10T10:58:17;101165.47;;;0.70;78.12
29941;BME280;16801;53.562;10.038;2022-12-10T11:01:45;101167.13;;;0.72;78.00
29941;BME280;16801;53.562;10.038;2022-12-10T11:05:15;101156.84;;;0.65;78.34
29941;BME280;16801;53.562;10.038;2022-12-10T11:08:38;101158.84;;;0.60;78.14
29941;BME280;16801;53.562;10.038;2022-12-10T11:12:01;101155.13;;;0.64;78.40
29941;BME280;16801;53.562;10.038;2022-12-10T11:15:33;101164.75;;;0.66;78.50
29941;BME280;16801;53.562;10.038;2022-12-10T11:18:56;101159.22;;;0.71;78.08
29941;BME280;16801;53.562;10.038;2022-12-10T11:22:23;101156.78;;;0.66;77.81
29941;BME280;16801;53.562;10.038;2022-12-10T11:25:49;101151.44;;;0.87;78.17
29941;BME280;16801;53.562;10.038;2022-12-10T11:29:22;101145.78;;;0.94;77.54
29941;BME280;16801;53.562;10.038;2022-12-10T11:32:58;101149.78;;;0.84;77.93
29941;BME280;16801;53.562;10.038;2022-12-10T11:36:29;101148.22;;;0.80;78.57
29941;BME280;16801;53.562;10.038;2022-12-10T11:40:14;101142.34;;;0.92;77.44
29941;BME280;16801;53.562;10.038;2022-12-10T11:43:51;101142.84;;;1.00;77.04
29941;BME280;16801;53.562;10.038;2022-12-10T11:47:35;101146.69;;;1.13;76.24
29941;BME280;16801;53.562;10.038;2022-12-10T11:51:04;101145.81;;;1.13;76.10
29941;BME280;16801;53.562;10.038;2022-12-10T11:54:36;101153.41;;;0.83;76.79
29941;BME280;16801;53.562;10.038;2022-12-10T11:58:16;101138.84;;;0.92;77.12
29941;BME280;16801;53.562;10.038;2022-12-10T12:01:56;101146.94;;;0.89;76.59
29941;BME280;16801;53.562;10.038;2022-12-10T12:05:28;101137.91;;;0.93;77.52
29941;BME280;16801;53.562;10.038;2022-12-10T12:09:01;101147.00;;;0.87;77.67
29941;BME280;16801;53.562;10.038;2022-12-10T12:12:35;101138.84;;;0.92;77.57
29941;BME280;16801;53.562;10.038;2022-12-10T12:16:01;101135.47;;;0.88;77.23
29941;BME280;16801;53.562;10.038;2022-12-10T12:19:28;101141.06;;;1.01;77.19
29941;BME280;16801;53.562;10.038;2022-12-10T12:22:56;101138.69;;;0.95;77.48
29941;BME280;16801;53.562;10.038;2022-12-10T12:26:25;101145.28;;;0.86;77.61
29941;BME280;16801;53.562;10.038;2022-12-10T12:29:57;101134.25;;;0.95;77.38
29941;BME280;16801;53.562;10.038;2022-12-10T12:33:26;101138.50;;;0.99;77.19
29941;BME280;16801;53.562;10.038;2022-12-10T12:36:49;101140.84;;;0.87;77.09
29941;BME280;16801;53.562;10.038;2022-12-10T12:40:13;101142.09;;;0.78;76.37
29941;BME280;16801;53.562;10.038;2022-12-10T12:43:42;101132.81;;;0.88;76.94
29941;BME280;16801;53.562;10.038;2022-12-10T12:47:18;101141.91;;;0.82;76.72
29941;BME280;16801;53.562;10.038;2022-12-10T12:50:44;101140.25;;;0.80;76.92
29941;BME280;16801;53.562;10.038;2022-12-10T12:54:07;101141.84;;;0.24;77.06
29941;BME280;16801;53.562;10.038;2022-12-10T12:57:34;101139.06;;;0.47;77.82
29941;BME280;16801;53.562;10.038;2022-12-10T13:01:05;101143.84;;;0.59;76.72
29941;BME280;16801;53.562;10.038;2022-12-10T13:04:28;101139.59;;;0.35;77.16
29941;BME280;16801;53.562;10.038;2022-12-10T13:08:15;101143.06;;;0.17;77.14
29941;BME280;16801;53.562;10.038;2022-12-10T13:11:42;101146.03;;;0.29;77.53
29941;BME280;16801;53.562;10.038;2022-12-10T13:15:18;101148.31;;;0.58;77.13
29941;BME280;16801;53.562;10.038;2022-12-10T13:18:40;101154.97;;;0.67;77.91
29941;BME280;16801;53.562;10.038;2022-12-10T13:22:07;101151.66;;;0.82;77.05
29941;BME280;16801;53.562;10.038;2022-12-10T13:25:41;101158.94;;;0.97;75.94
29941;BME280;16801;53.562;10.038;2022-12-10T13:29:22;101154.94;;;1.07;75.89
29941;BME280;16801;53.562;10.038;2022-12-10T13:32:46;101162.88;;;1.07;75.54
29941;BME280;16801;53.562;10.038;2022-12-10T13:36:08;101168.78;;;0.75;75.54
29941;BME280;16801;53.562;10.038;2022-12-10T13:39:33;101172.97;;;0.60;76.95
29941;BME280;16801;53.562;10.038;2022-12-10T13:42:59;101174.00;;;0.56;77.01
29941;BME280;16801;53.562;10.038;2022-12-10T13:46:59;101173.22;;;0.54;76.59
29941;BME280;16801;53.562;10.038;2022-12-10T13:50:31;101181.47;;;0.68;77.28
29941;BME280;16801;53.562;10.038;2022-12-10T13:54:08;101178.59;;;0.73;75.97
29941;BME280;16801;53.562;10.038;2022-12-10T13:57:50;101188.34;;;0.72;76.08
29941;BME280;16801;53.562;10.038;2022-12-10T14:01:22;101197.50;;;0.65;76.32
29941;BME280;16801;53.562;10.038;2022-12-10T14:08:31;101193.31;;;0.60;76.41
29941;BME280;16801;53.562;10.038;2022-12-10T14:11:57;101185.22;;;0.83;76.50
29941;BME280;16801;53.562;10.038;2022-12-10T14:15:20;101193.13;;;0.85;76.19
29941;BME280;16801;53.562;10.038;2022-12-10T14:18:52;101189.94;;;0.76;76.24
29941;BME280;16801;53.562;10.038;2022-12-10T14:22:16;101200.06;;;0.67;75.52
29941;BME280;16801;53.562;10.038;2022-12-10T14:25:41;101188.16;;;0.77;76.11
29941;BME280;16801;53.562;10.038;2022-12-10T14:29:17;101197.06;;;0.95;75.29
29941;BME280;16801;53.562;10.038;2022-12-10T14:32:38;101197.63;;;0.82;75.20
29941;BME280;16801;53.562;10.038;2022-12-10T14:36:00;101192.59;;;0.76;75.20
29941;BME280;16801;53.562;10.038;2022-12-10T14:39:26;101192.31;;;0.82;75.31
29941;BME280;16801;53.562;10.038;2022-12-10T14:42:47;101200.41;;;0.79;75.45
29941;BME280;16801;53.562;10.038;2022-12-10T14:46:14;101192.38;;;0.61;75.64
29941;BME280;16801;53.562;10.038;2022-12-10T14:49:39;101197.34;;;0.48;76.37
29941;BME280;16801;53.562;10.038;2022-12-10T14:53:01;101196.50;;;0.68;76.89
29941;BME280;16801;53.562;10.038;2022-12-10T14:56:25;101204.13;;;0.75;75.75
29941;BME280;16801;53.562;10.038;2022-12-10T14:59:59;101206.03;;;0.92;78.94
29941;BME280;16801;53.562;10.038;2022-12-10T15:03:26;101200.56;;;0.76;74.88
29941;BME280;16801;53.562;10.038;2022-12-10T15:06:47;101206.06;;;0.72;75.32
29941;BME280;16801;53.562;10.038;2022-12-10T15:10:14;101215.69;;;0.33;75.66
29941;BME280;16801;53.562;10.038;2022-12-10T15:13:39;101217.53;;;0.31;75.26
29941;BME280;16801;53.562;10.038;2022-12-10T15:17:01;101208.00;;;0.27;75.92
29941;BME280;16801;53.562;10.038;2022-12-10T15:20:26;101215.00;;;0.28;76.21
29941;BME280;16801;53.562;10.038;2022-12-10T15:23:48;101215.63;;;-0.31;77.77
29941;BME280;16801;53.562;10.038;2022-12-10T15:27:15;101211.13;;;-0.29;77.51
29941;BME280;16801;53.562;10.038;2022-12-10T15:30:38;101220.19;;;-0.34;78.39
29941;BME280;16801;53.562;10.038;2022-12-10T15:34:00;101221.50;;;-0.01;77.75
29941;BME280;16801;53.562;10.038;2022-12-10T15:37:25;101231.16;;;0.22;77.00
29941;BME280;16801;53.562;10.038;2022-12-10T15:40:46;101232.22;;;0.39;76.03
29941;BME280;16801;53.562;10.038;2022-12-10T15:44:18;101225.78;;;0.45;76.22
29941;BME280;16801;53.562;10.038;2022-12-10T15:47:39;101221.16;;;0.50;76.69
29941;BME280;16801;53.562;10.038;2022-12-10T15:51:00;101224.53;;;0.73;75.22
29941;BME280;16801;53.562;10.038;2022-12-10T15:54:32;101222.19;;;0.88;75.67
29941;BME280;16801;53.562;10.038;2022-12-10T15:57:53;101224.94;;;0.85;75.10
29941;BME280;16801;53.562;10.038;2022-12-10T16:01:14;101235.75;;;0.80;75.10
29941;BME280;16801;53.562;10.038;2022-12-10T16:04:36;101227.69;;;0.83;75.51
29941;BME280;16801;53.562;10.038;2022-12-10T16:07:59;101224.84;;;0.88;75.52
29941;BME280;16801;53.562;10.038;2022-12-10T16:11:22;101228.47;;;0.85;75.75
29941;BME280;16801;53.562;10.038;2022-12-10T16:14:48;101230.00;;;0.70;76.12
29941;BME280;16801;53.562;10.038;2022-12-10T16:18:10;101236.81;;;0.76;76.77
29941;BME280;16801;53.562;10.038;2022-12-10T16:21:32;101232.16;;;0.61;76.81
29941;BME280;16801;53.562;10.038;2022-12-10T16:24:53;101235.06;;;0.35;77.71
29941;BME280;16801;53.562;10.038;2022-12-10T16:28:16;101240.22;;;0.38;77.96
29941;BME280;16801;53.562;10.038;2022-12-10T16:31:39;101236.56;;;0.40;78.68
29941;BME280;16801;53.562;10.038;2022-12-10T16:35:00;101236.66;;;0.39;78.26
29941;BME280;16801;53.562;10.038;2022-12-10T16:38:21;101252.38;;;0.43;78.69
29941;BME280;16801;53.562;10.038;2022-12-10T16:41:43;101242.50;;;0.47;79.62
29941;BME280;16801;53.562;10.038;2022-12-10T16:45:13;101241.56;;;0.48;78.55
29941;BME280;16801;53.562;10.038;2022-12-10T16:48:34;101236.28;;;0.48;78.67
29941;BME280;16801;53.562;10.038;2022-12-10T16:51:55;101225.97;;;0.40;78.33
29941;BME280;16801;53.562;10.038;2022-12-10T16:55:19;101230.13;;;0.26;79.58
29941;BME280;16801;53.562;10.038;2022-12-10T16:58:40;101229.75;;;0.35;78.93
29941;BME280;16801;53.562;10.038;2022-12-10T17:02:03;101231.81;;;0.48;78.79
29941;BME280;16801;53.562;10.038;2022-12-10T17:05:29;101226.84;;;0.61;78.60
29941;BME280;16801;53.562;10.038;2022-12-10T17:08:51;101234.78;;;0.62;78.45
29941;BME280;16801;53.562;10.038;2022-12-10T17:12:12;101234.34;;;0.51;78.88
29941;BME280;16801;53.562;10.038;2022-12-10T17:15:33;101236.06;;;0.52;79.01
29941;BME280;16801;53.562;10.038;2022-12-10T17:18:57;101237.34;;;0.64;79.07
29941;BME280;16801;53.562;10.038;2022-12-10T17:22:18;101239.94;;;0.65;79.31
29941;BME280;16801;53.562;10.038;2022-12-10T17:25:39;101244.16;;;0.69;79.25
29941;BME280;16801;53.562;10.038;2022-12-10T17:29:04;101242.38;;;0.70;79.30
29941;BME280;16801;53.562;10.038;2022-12-10T17:32:26;101237.16;;;0.68;78.91
29941;BME280;16801;53.562;10.038;2022-12-10T17:35:51;101238.22;;;0.64;78.40
29941;BME280;16801;53.562;10.038;2022-12-10T17:39:14;101238.06;;;0.47;78.83
29941;BME280;16801;53.562;10.038;2022-12-10T17:42:35;101239.47;;;0.56;79.08
29941;BME280;16801;53.562;10.038;2022-12-10T17:45:56;101241.00;;;0.40;78.86
29941;BME280;16801;53.562;10.038;2022-12-10T17:49:17;101239.56;;;0.33;79.19
29941;BME280;16801;53.562;10.038;2022-12-10T17:52:40;101242.63;;;0.44;80.36